sensor_id;sensor_type;location;lat;lon;timestamp;P1;durP1;ratioP1;P2;durP2;ratioP2
20794;SDS011;28087;-33.874;151.240;2022-11-21T00:02:22;5.65;;;0.73;;
20794;SDS011;28087;-33.874;151.240;2022-11-21T00:04:59;2.97;;;0.75;;
20794;SDS011;28087;-33.874;151.240;2022-11-21T00:07:42;5.20;;;0.80;;
20794;SDS011;28087;-33.874;151.240;2022-11-21T00:10:19;2.40;;;0.80;;
20794;SDS011;28087;-33.874;151.240;2022-11-21T00:12:56;7.97;;;0.80;;
20794;SDS011;28087;-33.874;151.240;2022-11-21T00:15:32;4.72;;;0.98;;
20794;SDS011;28087;-33.874;151.240;2022-11-21T00:18:08;6.90;;;0.88;;
20794;SDS011;28087;-33.874;151.240;2022-11-21T00:20:44;5.13;;;0.95;;
20794;SDS011;28087;-33.874;151.240;2022-11-21T00:23:22;5.90;;;0.85;;
20794;SDS011;28087;-33.874;151.240;2022-11-21T00:25:58;7.68;;;0.80;;
20794;SDS011;28087;-33.874;151.240;2022-11-21T00:28:38;5.10;;;0.80;;
20794;SDS011;28087;-33.874;151.240;2022-11-21T00:31:18;3.78;;;0.60;;
20794;SDS011;28087;-33.874;151.240;2022-11-21T00:33:56;8.50;;;0.90;;
20794;SDS011;28087;-33.874;151.240;2022-11-21T00:36:32;3.20;;;0.70;;
20794;SDS011;28087;-33.874;151.240;2022-11-21T00:39:10;3.40;;;0.90;;
20794;SDS011;28087;-33.874;151.240;2022-11-21T00:41:46;5.18;;;0.80;;
20794;SDS011;28087;-33.874;151.240;2022-11-21T00:44:23;4.78;;;1.00;;
20794;SDS011;28087;-33.874;151.240;2022-11-21T00:47:00;4.18;;;0.90;;
20794;SDS011;28087;-33.874;151.240;2022-11-21T00:49:36;5.60;;;0.80;;
20794;SDS011;28087;-33.874;151.240;2022-11-21T00:52:12;3.22;;;0.88;;
20794;SDS011;28087;-33.874;151.240;2022-11-21T00:54:51;4.22;;;0.73;;
20794;SDS011;28087;-33.874;151.240;2022-11-21T00:57:26;6.45;;;0.93;;
20794;SDS011;28087;-33.874;151.240;2022-11-21T01:00:03;2.75;;;0.77;;
20794;SDS011;28087;-33.874;151.240;2022-11-21T01:02:38;6.10;;;0.80;;
20794;SDS011;28087;-33.874;151.240;2022-11-21T01:05:16;5.05;;;0.90;;
20794;SDS011;28087;-33.874;151.240;2022-11-21T01:07:53;4.28;;;0.93;;
20794;SDS011;28087;-33.874;151.240;2022-11-21T01:10:30;6.13;;;0.90;;
20794;SDS011;28087;-33.874;151.240;2022-11-21T01:13:08;6.63;;;0.95;;
20794;SDS011;28087;-33.874;151.240;2022-11-21T01:15:42;5.40;;;0.90;;
20794;SDS011;28087;-33.874;151.240;2022-11-21T01:18:18;4.40;;;0.98;;
20794;SDS011;28087;-33.874;151.240;2022-11-21T01:20:54;7.75;;;1.10;;
20794;SDS011;28087;-33.874;151.240;2022-11-21T01:23:34;6.85;;;1.13;;
20794;SDS011;28087;-33.874;151.240;2022-11-21T01:26:13;5.65;;;1.02;;
20794;SDS011;28087;-33.874;151.240;2022-11-21T01:28:51;5.65;;;0.90;;
20794;SDS011;28087;-33.874;151.240;2022-11-21T01:31:29;3.15;;;0.80;;
20794;SDS011;28087;-33.874;151.240;2022-11-21T01:34:05;7.22;;;0.85;;
20794;SDS011;28087;-33.874;151.240;2022-11-21T01:36:41;3.22;;;0.70;;
20794;SDS011;28087;-33.874;151.240;2022-11-21T01:39:19;3.60;;;0.75;;
20794;SDS011;28087;-33.874;151.240;2022-11-21T01:41:59;6.72;;;0.88;;
20794;SDS011;28087;-33.874;151.240;2022-11-21T01:44:45;2.45;;;0.90;;
20794;SDS011;28087;-33.874;151.240;2022-11-21T01:47:23;3.75;;;0.90;;
20794;SDS011;28087;-33.874;151.240;2022-11-21T01:49:59;5.55;;;0.80;;
20794;SDS011;28087;-33.874;151.240;2022-11-21T01:52:41;3.15;;;0.80;;
20794;SDS011;28087;-33.874;151.240;2022-11-21T01:55:16;5.50;;;0.80;;
20794;SDS011;28087;-33.874;151.240;2022-11-21T01:57:54;2.10;;;0.60;;
20794;SDS011;28087;-33.874;151.240;2022-11-21T02:00:34;3.05;;;0.80;;
20794;SDS011;28087;-33.874;151.240;2022-11-21T02:03:14;7.78;;;0.85;;
20794;SDS011;28087;-33.874;151.240;2022-11-21T02:05:54;4.80;;;0.80;;
20794;SDS011;28087;-33.874;151.240;2022-11-21T02:08:29;3.15;;;0.70;;
20794;SDS011;28087;-33.874;151.240;2022-11-21T02:11:09;2.50;;;0.80;;
20794;SDS011;28087;-33.874;151.240;2022-11-21T02:13:49;2.53;;;1.00;;
20794;SDS011;28087;-33.874;151.240;2022-11-21T02:16:26;6.35;;;0.77;;
20794;SDS011;28087;-33.874;151.240;2022-11-21T02:19:01;5.65;;;0.80;;
20794;SDS011;28087;-33.874;151.240;2022-11-21T02:21:40;6.80;;;0.80;;
20794;SDS011;28087;-33.874;151.240;2022-11-21T02:24:26;5.47;;;0.70;;
20794;SDS011;28087;-33.874;151.240;2022-11-21T02:27:11;5.22;;;0.80;;
20794;SDS011;28087;-33.874;151.240;2022-11-21T02:29:47;5.47;;;0.90;;
20794;SDS011;28087;-33.874;151.240;2022-11-21T02:32:27;6.95;;;0.90;;
20794;SDS011;28087;-33.874;151.240;2022-11-21T02:35:09;3.30;;;0.70;;
20794;SDS011;28087;-33.874;151.240;2022-11-21T02:37:50;4.80;;;0.90;;
20794;SDS011;28087;-33.874;151.240;2022-11-21T02:40:33;2.45;;;0.55;;
20794;SDS011;28087;-33.874;151.240;2022-11-21T02:43:11;2.28;;;0.60;;
20794;SDS011;28087;-33.874;151.240;2022-11-21T02:45:51;1.98;;;0.60;;
20794;SDS011;28087;-33.874;151.240;2022-11-21T02:48:28;2.90;;;0.57;;
20794;SDS011;28087;-33.874;151.240;2022-11-21T02:51:07;3.28;;;0.65;;
20794;SDS011;28087;-33.874;151.240;2022-11-21T02:53:44;2.58;;;0.70;;
20794;SDS011;28087;-33.874;151.240;2022-11-21T02:56:20;3.28;;;0.80;;
20794;SDS011;28087;-33.874;151.240;2022-11-21T02:58:58;3.42;;;0.70;;
20794;SDS011;28087;-33.874;151.240;2022-11-21T03:01:37;3.22;;;0.88;;
20794;SDS011;28087;-33.874;151.240;2022-11-21T03:04:12;3.97;;;0.70;;
20794;SDS011;28087;-33.874;151.240;2022-11-21T03:06:50;5.45;;;0.85;;
20794;SDS011;28087;-33.874;151.240;2022-11-21T03:09:26;5.43;;;0.70;;
20794;SDS011;28087;-33.874;151.240;2022-11-21T03:12:05;4.70;;;0.70;;
20794;SDS011;28087;-33.874;151.240;2022-11-21T03:14:42;6.97;;;0.82;;
20794;SDS011;28087;-33.874;151.240;2022-11-21T03:17:18;3.88;;;1.00;;
20794;SDS011;28087;-33.874;151.240;2022-11-21T03:19:54;5.70;;;0.70;;
20794;SDS011;28087;-33.874;151.240;2022-11-21T03:22:29;4.28;;;0.68;;
20794;SDS011;28087;-33.874;151.240;2022-11-21T03:25:05;5.68;;;0.85;;
20794;SDS011;28087;-33.874;151.240;2022-11-21T03:27:41;6.97;;;0.70;;
20794;SDS011;28087;-33.874;151.240;2022-11-21T03:30:19;5.15;;;0.60;;
20794;SDS011;28087;-33.874;151.240;2022-11-21T03:32:59;5.00;;;0.80;;
20794;SDS011;28087;-33.874;151.240;2022-11-21T03:35:35;4.93;;;0.82;;
20794;SDS011;28087;-33.874;151.240;2022-11-21T03:38:12;6.15;;;0.73;;
20794;SDS011;28087;-33.874;151.240;2022-11-21T03:40:48;3.78;;;0.63;;
20794;SDS011;28087;-33.874;151.240;2022-11-21T03:43:25;5.35;;;0.80;;
20794;SDS011;28087;-33.874;151.240;2022-11-21T03:46:03;7.28;;;0.80;;
20794;SDS011;28087;-33.874;151.240;2022-11-21T03:48:38;2.92;;;0.63;;
20794;SDS011;28087;-33.874;151.240;2022-11-21T03:51:14;3.88;;;1.02;;
20794;SDS011;28087;-33.874;151.240;2022-11-21T03:53:52;4.38;;;0.70;;
20794;SDS011;28087;-33.874;151.240;2022-11-21T03:56:27;4.10;;;0.75;;
20794;SDS011;28087;-33.874;151.240;2022-11-21T03:59:04;2.88;;;0.70;;
20794;SDS011;28087;-33.874;151.240;2022-11-21T04:01:41;2.95;;;0.90;;
20794;SDS011;28087;-33.874;151.240;2022-11-21T04:04:18;3.58;;;0.70;;
20794;SDS011;28087;-33.874;151.240;2022-11-21T04:06:57;2.60;;;0.73;;
20794;SDS011;28087;-33.874;151.240;2022-11-21T04:09:35;3.35;;;0.75;;
20794;SDS011;28087;-33.874;151.240;2022-11-21T04:12:10;4.97;;;0.70;;
20794;SDS011;28087;-33.874;151.240;2022-11-21T04:14:46;4.28;;;0.80;;
20794;SDS011;28087;-33.874;151.240;2022-11-21T04:17:24;4.65;;;0.80;;
20794;SDS011;28087;-33.874;151.240;2022-11-21T04:20:01;3.85;;;0.73;;
20794;SDS011;28087;-33.874;151.240;2022-11-21T04:22:38;3.97;;;0.65;;
20794;SDS011;28087;-33.874;151.240;2022-11-21T04:25:15;4.55;;;0.88;;
20794;SDS011;28087;-33.874;151.240;2022-11-21T04:27:51;5.53;;;0.85;;
20794;SDS011;28087;-33.874;151.240;2022-11-21T04:30:30;7.90;;;1.05;;
20794;SDS011;28087;-33.874;151.240;2022-11-21T04:33:08;4.78;;;0.80;;
20794;SDS011;28087;-33.874;151.240;2022-11-21T04:35:46;3.05;;;0.90;;
20794;SDS011;28087;-33.874;151.240;2022-11-21T04:38:23;3.63;;;0.80;;
20794;SDS011;28087;-33.874;151.240;2022-11-21T04:41:01;4.70;;;0.90;;
20794;SDS011;28087;-33.874;151.240;2022-11-21T04:43:38;2.78;;;0.77;;
20794;SDS011;28087;-33.874;151.240;2022-11-21T04:46:16;3.35;;;0.90;;
20794;SDS011;28087;-33.874;151.240;2022-11-21T04:48:56;2.45;;;0.80;;
20794;SDS011;28087;-33.874;151.240;2022-11-21T04:51:31;5.28;;;0.93;;
20794;SDS011;28087;-33.874;151.240;2022-11-21T04:54:09;3.60;;;0.77;;
20794;SDS011;28087;-33.874;151.240;2022-11-21T04:56:45;4.70;;;0.80;;
20794;SDS011;28087;-33.874;151.240;2022-11-21T04:59:20;3.63;;;0.90;;
20794;SDS011;28087;-33.874;151.240;2022-11-21T05:02:00;4.10;;;0.80;;
20794;SDS011;28087;-33.874;151.240;2022-11-21T05:04:41;4.85;;;0.70;;
20794;SDS011;28087;-33.874;151.240;2022-11-21T05:07:18;3.53;;;0.80;;
20794;SDS011;28087;-33.874;151.240;2022-11-21T05:09:54;3.22;;;0.60;;
20794;SDS011;28087;-33.874;151.240;2022-11-21T05:12:29;3.40;;;0.75;;
20794;SDS011;28087;-33.874;151.240;2022-11-21T05:15:22;5.53;;;0.88;;
20794;SDS011;28087;-33.874;151.240;2022-11-21T05:17:58;2.78;;;0.55;;
20794;SDS011;28087;-33.874;151.240;2022-11-21T05:20:35;6.60;;;0.88;;
20794;SDS011;28087;-33.874;151.240;2022-11-21T05:23:10;2.63;;;0.75;;
20794;SDS011;28087;-33.874;151.240;2022-11-21T05:25:44;3.13;;;0.70;;
20794;SDS011;28087;-33.874;151.240;2022-11-21T05:28:20;2.47;;;0.60;;
20794;SDS011;28087;-33.874;151.240;2022-11-21T05:30:56;2.58;;;0.60;;
20794;SDS011;28087;-33.874;151.240;2022-11-21T05:33:31;3.30;;;0.70;;
20794;SDS011;28087;-33.874;151.240;2022-11-21T05:36:11;5.40;;;0.80;;
20794;SDS011;28087;-33.874;151.240;2022-11-21T05:38:46;5.07;;;0.73;;
20794;SDS011;28087;-33.874;151.240;2022-11-21T05:41:22;3.30;;;0.73;;
20794;SDS011;28087;-33.874;151.240;2022-11-21T05:43:59;4.10;;;0.90;;
20794;SDS011;28087;-33.874;151.240;2022-11-21T05:46:35;5.43;;;0.98;;
20794;SDS011;28087;-33.874;151.240;2022-11-21T05:49:12;5.25;;;0.90;;
20794;SDS011;28087;-33.874;151.240;2022-11-21T05:51:49;2.85;;;0.82;;
20794;SDS011;28087;-33.874;151.240;2022-11-21T05:54:24;6.20;;;0.90;;
20794;SDS011;28087;-33.874;151.240;2022-11-21T05:57:00;4.68;;;0.80;;
20794;SDS011;28087;-33.874;151.240;2022-11-21T05:59:35;3.78;;;0.70;;
20794;SDS011;28087;-33.874;151.240;2022-11-21T06:02:10;5.28;;;0.70;;
20794;SDS011;28087;-33.874;151.240;2022-11-21T06:05:06;6.43;;;0.70;;
20794;SDS011;28087;-33.874;151.240;2022-11-21T06:07:43;4.10;;;0.85;;
20794;SDS011;28087;-33.874;151.240;2022-11-21T06:10:19;3.40;;;0.80;;
20794;SDS011;28087;-33.874;151.240;2022-11-21T06:12:54;3.70;;;0.90;;
20794;SDS011;28087;-33.874;151.240;2022-11-21T06:15:33;4.65;;;0.80;;
20794;SDS011;28087;-33.874;151.240;2022-11-21T06:18:08;2.78;;;0.70;;
20794;SDS011;28087;-33.874;151.240;2022-11-21T06:20:44;2.63;;;0.70;;
20794;SDS011;28087;-33.874;151.240;2022-11-21T06:23:21;3.88;;;0.80;;
20794;SDS011;28087;-33.874;151.240;2022-11-21T06:25:56;2.92;;;0.80;;
20794;SDS011;28087;-33.874;151.240;2022-11-21T06:28:33;1.90;;;0.70;;
20794;SDS011;28087;-33.874;151.240;2022-11-21T06:31:09;4.05;;;0.85;;
20794;SDS011;28087;-33.874;151.240;2022-11-21T06:33:44;3.05;;;0.82;;
20794;SDS011;28087;-33.874;151.240;2022-11-21T06:36:19;3.83;;;0.88;;
20794;SDS011;28087;-33.874;151.240;2022-11-21T06:38:56;7.57;;;0.90;;
20794;SDS011;28087;-33.874;151.240;2022-11-21T06:41:32;4.75;;;0.93;;
20794;SDS011;28087;-33.874;151.240;2022-11-21T06:44:08;3.55;;;0.85;;
20794;SDS011;28087;-33.874;151.240;2022-11-21T06:46:43;3.95;;;0.93;;
20794;SDS011;28087;-33.874;151.240;2022-11-21T06:49:19;3.60;;;0.75;;
20794;SDS011;28087;-33.874;151.240;2022-11-21T06:51:54;4.03;;;0.88;;
20794;SDS011;28087;-33.874;151.240;2022-11-21T06:54:31;2.90;;;0.73;;
20794;SDS011;28087;-33.874;151.240;2022-11-21T06:57:07;3.13;;;0.90;;
20794;SDS011;28087;-33.874;151.240;2022-11-21T06:59:41;4.47;;;1.00;;
20794;SDS011;28087;-33.874;151.240;2022-11-21T07:02:16;5.20;;;0.90;;
20794;SDS011;28087;-33.874;151.240;2022-11-21T07:04:51;3.78;;;1.20;;
20794;SDS011;28087;-33.874;151.240;2022-11-21T07:07:26;3.90;;;1.00;;
20794;SDS011;28087;-33.874;151.240;2022-11-21T07:10:05;4.15;;;1.08;;
20794;SDS011;28087;-33.874;151.240;2022-11-21T07:12:42;3.63;;;0.80;;
20794;SDS011;28087;-33.874;151.240;2022-11-21T07:15:36;3.92;;;0.80;;
20794;SDS011;28087;-33.874;151.240;2022-11-21T07:18:15;2.47;;;0.82;;
20794;SDS011;28087;-33.874;151.240;2022-11-21T07:20:56;4.95;;;1.00;;
20794;SDS011;28087;-33.874;151.240;2022-11-21T07:23:32;5.40;;;1.08;;
20794;SDS011;28087;-33.874;151.240;2022-11-21T07:26:11;2.83;;;1.00;;
20794;SDS011;28087;-33.874;151.240;2022-11-21T07:28:48;3.22;;;0.90;;
20794;SDS011;28087;-33.874;151.240;2022-11-21T07:31:24;4.60;;;1.10;;
20794;SDS011;28087;-33.874;151.240;2022-11-21T07:34:00;6.57;;;1.00;;
20794;SDS011;28087;-33.874;151.240;2022-11-21T07:36:36;4.15;;;0.88;;
20794;SDS011;28087;-33.874;151.240;2022-11-21T07:39:12;5.00;;;1.02;;
20794;SDS011;28087;-33.874;151.240;2022-11-21T07:41:51;3.63;;;0.90;;
20794;SDS011;28087;-33.874;151.240;2022-11-21T07:44:30;4.15;;;1.30;;
20794;SDS011;28087;-33.874;151.240;2022-11-21T07:47:06;4.75;;;1.10;;
20794;SDS011;28087;-33.874;151.240;2022-11-21T07:49:42;3.33;;;1.00;;
20794;SDS011;28087;-33.874;151.240;2022-11-21T07:52:18;4.47;;;1.17;;
20794;SDS011;28087;-33.874;151.240;2022-11-21T07:54:58;4.22;;;0.95;;
20794;SDS011;28087;-33.874;151.240;2022-11-21T07:57:38;4.68;;;1.08;;
20794;SDS011;28087;-33.874;151.240;2022-11-21T08:00:13;7.68;;;0.90;;
20794;SDS011;28087;-33.874;151.240;2022-11-21T08:02:50;2.47;;;0.80;;
20794;SDS011;28087;-33.874;151.240;2022-11-21T08:05:27;3.97;;;0.85;;
20794;SDS011;28087;-33.874;151.240;2022-11-21T08:08:03;4.13;;;1.08;;
20794;SDS011;28087;-33.874;151.240;2022-11-21T08:10:40;3.78;;;1.00;;
20794;SDS011;28087;-33.874;151.240;2022-11-21T08:13:20;6.05;;;1.60;;
20794;SDS011;28087;-33.874;151.240;2022-11-21T08:15:56;5.85;;;1.33;;
20794;SDS011;28087;-33.874;151.240;2022-11-21T08:18:33;6.45;;;1.60;;
20794;SDS011;28087;-33.874;151.240;2022-11-21T08:21:09;3.15;;;1.00;;
20794;SDS011;28087;-33.874;151.240;2022-11-21T08:23:48;4.20;;;1.10;;
20794;SDS011;28087;-33.874;151.240;2022-11-21T08:26:24;4.93;;;1.00;;
20794;SDS011;28087;-33.874;151.240;2022-11-21T08:29:03;3.53;;;0.90;;
20794;SDS011;28087;-33.874;151.240;2022-11-21T08:31:39;4.30;;;0.93;;
20794;SDS011;28087;-33.874;151.240;2022-11-21T08:34:15;4.18;;;0.90;;
20794;SDS011;28087;-33.874;151.240;2022-11-21T08:36:52;4.95;;;1.13;;
20794;SDS011;28087;-33.874;151.240;2022-11-21T08:39:29;3.45;;;1.00;;
20794;SDS011;28087;-33.874;151.240;2022-11-21T08:42:05;3.67;;;1.05;;
20794;SDS011;28087;-33.874;151.240;2022-11-21T08:44:44;4.70;;;0.90;;
20794;SDS011;28087;-33.874;151.240;2022-11-21T08:47:20;5.15;;;1.10;;
20794;SDS011;28087;-33.874;151.240;2022-11-21T08:49:56;5.53;;;1.20;;
20794;SDS011;28087;-33.874;151.240;2022-11-21T08:52:37;2.95;;;1.02;;
20794;SDS011;28087;-33.874;151.240;2022-11-21T08:55:12;4.28;;;1.20;;
20794;SDS011;28087;-33.874;151.240;2022-11-21T08:57:55;3.35;;;0.85;;
20794;SDS011;28087;-33.874;151.240;2022-11-21T09:00:37;4.93;;;1.20;;
20794;SDS011;28087;-33.874;151.240;2022-11-21T09:03:13;3.40;;;0.90;;
20794;SDS011;28087;-33.874;151.240;2022-11-21T09:05:55;3.78;;;0.93;;
20794;SDS011;28087;-33.874;151.240;2022-11-21T09:08:31;4.28;;;1.00;;
20794;SDS011;28087;-33.874;151.240;2022-11-21T09:11:07;3.38;;;0.90;;
20794;SDS011;28087;-33.874;151.240;2022-11-21T09:13:45;2.85;;;0.90;;
20794;SDS011;28087;-33.874;151.240;2022-11-21T09:16:44;4.55;;;1.05;;
20794;SDS011;28087;-33.874;151.240;2022-11-21T09:19:37;2.97;;;1.00;;
20794;SDS011;28087;-33.874;151.240;2022-11-21T09:22:12;5.97;;;1.00;;
20794;SDS011;28087;-33.874;151.240;2022-11-21T09:24:48;3.33;;;0.90;;
20794;SDS011;28087;-33.874;151.240;2022-11-21T09:27:25;3.40;;;1.00;;
20794;SDS011;28087;-33.874;151.240;2022-11-21T09:30:01;6.40;;;1.08;;
20794;SDS011;28087;-33.874;151.240;2022-11-21T09:32:39;3.38;;;0.88;;
20794;SDS011;28087;-33.874;151.240;2022-11-21T09:35:15;3.35;;;1.15;;
20794;SDS011;28087;-33.874;151.240;2022-11-21T09:37:51;6.57;;;1.17;;
20794;SDS011;28087;-33.874;151.240;2022-11-21T09:40:28;4.85;;;0.90;;
20794;SDS011;28087;-33.874;151.240;2022-11-21T09:46:13;3.72;;;0.90;;
20794;SDS011;28087;-33.874;151.240;2022-11-21T09:48:55;3.28;;;0.90;;
20794;SDS011;28087;-33.874;151.240;2022-11-21T09:51:33;5.68;;;1.02;;
20794;SDS011;28087;-33.874;151.240;2022-11-21T09:54:15;3.00;;;0.98;;
20794;SDS011;28087;-33.874;151.240;2022-11-21T09:56:57;4.65;;;0.80;;
20794;SDS011;28087;-33.874;151.240;2022-11-21T09:59:37;5.45;;;1.20;;
20794;SDS011;28087;-33.874;151.240;2022-11-21T10:02:17;2.42;;;0.80;;
20794;SDS011;28087;-33.874;151.240;2022-11-21T10:04:58;3.90;;;0.93;;
20794;SDS011;28087;-33.874;151.240;2022-11-21T10:07:34;5.78;;;0.90;;
20794;SDS011;28087;-33.874;151.240;2022-11-21T10:10:17;2.88;;;0.90;;
20794;SDS011;28087;-33.874;151.240;2022-11-21T10:13:03;2.65;;;0.90;;
20794;SDS011;28087;-33.874;151.240;2022-11-21T10:15:53;3.78;;;0.90;;
20794;SDS011;28087;-33.874;151.240;2022-11-21T10:21:54;3.65;;;0.80;;
20794;SDS011;28087;-33.874;151.240;2022-11-21T10:24:43;2.90;;;0.82;;
20794;SDS011;28087;-33.874;151.240;2022-11-21T10:27:36;4.10;;;0.80;;
20794;SDS011;28087;-33.874;151.240;2022-11-21T10:31:06;2.95;;;0.90;;
20794;SDS011;28087;-33.874;151.240;2022-11-21T10:34:57;4.57;;;0.80;;
20794;SDS011;28087;-33.874;151.240;2022-11-21T10:41:42;3.42;;;0.90;;
20794;SDS011;28087;-33.874;151.240;2022-11-21T10:44:36;4.47;;;0.90;;
20794;SDS011;28087;-33.874;151.240;2022-11-21T10:47:31;3.47;;;1.00;;
20794;SDS011;28087;-33.874;151.240;2022-11-21T10:50:13;3.95;;;0.80;;
20794;SDS011;28087;-33.874;151.240;2022-11-21T10:53:33;3.00;;;0.77;;
20794;SDS011;28087;-33.874;151.240;2022-11-21T10:56:46;4.45;;;0.80;;
20794;SDS011;28087;-33.874;151.240;2022-11-21T10:59:55;5.35;;;0.60;;
20794;SDS011;28087;-33.874;151.240;2022-11-21T11:03:03;3.92;;;1.00;;
20794;SDS011;28087;-33.874;151.240;2022-11-21T11:05:53;4.55;;;0.80;;
20794;SDS011;28087;-33.874;151.240;2022-11-21T11:08:32;3.50;;;0.80;;
20794;SDS011;28087;-33.874;151.240;2022-11-21T11:11:27;2.17;;;0.70;;
20794;SDS011;28087;-33.874;151.240;2022-11-21T11:14:04;3.25;;;0.80;;
20794;SDS011;28087;-33.874;151.240;2022-11-21T11:16:47;3.10;;;0.80;;
20794;SDS011;28087;-33.874;151.240;2022-11-21T11:19:28;6.72;;;0.85;;
20794;SDS011;28087;-33.874;151.240;2022-11-21T11:22:11;2.17;;;0.70;;
20794;SDS011;28087;-33.874;151.240;2022-11-21T11:25:38;6.22;;;0.90;;
20794;SDS011;28087;-33.874;151.240;2022-11-21T11:28:34;4.43;;;0.80;;
20794;SDS011;28087;-33.874;151.240;2022-11-21T11:31:39;5.57;;;0.82;;
20794;SDS011;28087;-33.874;151.240;2022-11-21T11:34:36;4.22;;;0.80;;
20794;SDS011;28087;-33.874;151.240;2022-11-21T11:37:29;5.28;;;0.80;;
20794;SDS011;28087;-33.874;151.240;2022-11-21T11:40:31;3.28;;;0.63;;
20794;SDS011;28087;-33.874;151.240;2022-11-21T11:43:46;3.35;;;0.70;;
20794;SDS011;28087;-33.874;151.240;2022-11-21T11:46:54;3.92;;;0.90;;
20794;SDS011;28087;-33.874;151.240;2022-11-21T11:50:10;4.38;;;1.08;;
20794;SDS011;28087;-33.874;151.240;2022-11-21T11:53:17;7.53;;;1.13;;
20794;SDS011;28087;-33.874;151.240;2022-11-21T11:56:01;3.20;;;0.90;;
20794;SDS011;28087;-33.874;151.240;2022-11-21T11:58:54;2.75;;;0.70;;
20794;SDS011;28087;-33.874;151.240;2022-11-21T12:01:49;2.80;;;0.60;;
20794;SDS011;28087;-33.874;151.240;2022-11-21T12:04:43;4.45;;;1.02;;
20794;SDS011;28087;-33.874;151.240;2022-11-21T12:07:25;2.75;;;0.70;;
20794;SDS011;28087;-33.874;151.240;2022-11-21T12:10:28;4.75;;;0.70;;
20794;SDS011;28087;-33.874;151.240;2022-11-21T12:13:39;2.10;;;0.63;;
20794;SDS011;28087;-33.874;151.240;2022-11-21T12:16:18;2.42;;;0.80;;
20794;SDS011;28087;-33.874;151.240;2022-11-21T12:19:02;1.85;;;0.82;;
20794;SDS011;28087;-33.874;151.240;2022-11-21T12:21:44;2.38;;;0.75;;
20794;SDS011;28087;-33.874;151.240;2022-11-21T12:24:20;2.42;;;0.82;;
20794;SDS011;28087;-33.874;151.240;2022-11-21T12:27:02;3.33;;;0.80;;
20794;SDS011;28087;-33.874;151.240;2022-11-21T12:30:02;3.10;;;1.02;;
20794;SDS011;28087;-33.874;151.240;2022-11-21T12:33:00;2.70;;;0.75;;
20794;SDS011;28087;-33.874;151.240;2022-11-21T12:35:52;2.15;;;0.70;;
20794;SDS011;28087;-33.874;151.240;2022-11-21T12:38:50;3.30;;;0.70;;
20794;SDS011;28087;-33.874;151.240;2022-11-21T12:41:47;1.50;;;0.60;;
20794;SDS011;28087;-33.874;151.240;2022-11-21T12:44:56;1.85;;;0.50;;
20794;SDS011;28087;-33.874;151.240;2022-11-21T12:47:49;3.60;;;0.60;;
20794;SDS011;28087;-33.874;151.240;2022-11-21T12:51:17;3.00;;;0.60;;
20794;SDS011;28087;-33.874;151.240;2022-11-21T12:58:04;2.00;;;0.50;;
20794;SDS011;28087;-33.874;151.240;2022-11-21T13:01:05;4.43;;;0.70;;
20794;SDS011;28087;-33.874;151.240;2022-11-21T13:03:54;3.22;;;0.50;;
20794;SDS011;28087;-33.874;151.240;2022-11-21T13:06:37;0.95;;;0.40;;
20794;SDS011;28087;-33.874;151.240;2022-11-21T13:09:22;1.85;;;0.40;;
20794;SDS011;28087;-33.874;151.240;2022-11-21T13:12:12;1.70;;;0.50;;
20794;SDS011;28087;-33.874;151.240;2022-11-21T13:15:12;2.75;;;0.50;;
20794;SDS011;28087;-33.874;151.240;2022-11-21T13:17:57;1.88;;;0.50;;
20794;SDS011;28087;-33.874;151.240;2022-11-21T13:21:02;1.67;;;0.50;;
20794;SDS011;28087;-33.874;151.240;2022-11-21T13:23:44;2.10;;;0.50;;
20794;SDS011;28087;-33.874;151.240;2022-11-21T13:29:28;3.53;;;0.63;;
20794;SDS011;28087;-33.874;151.240;2022-11-21T13:42:35;4.68;;;0.90;;
20794;SDS011;28087;-33.874;151.240;2022-11-21T13:46:08;3.08;;;0.57;;
20794;SDS011;28087;-33.874;151.240;2022-11-21T13:49:07;2.10;;;0.60;;
20794;SDS011;28087;-33.874;151.240;2022-11-21T13:51:55;2.42;;;0.70;;
20794;SDS011;28087;-33.874;151.240;2022-11-21T13:58:10;1.70;;;0.50;;
20794;SDS011;28087;-33.874;151.240;2022-11-21T14:01:18;4.18;;;0.70;;
20794;SDS011;28087;-33.874;151.240;2022-11-21T14:04:29;3.15;;;0.60;;
20794;SDS011;28087;-33.874;151.240;2022-11-21T14:07:19;2.25;;;0.52;;
20794;SDS011;28087;-33.874;151.240;2022-11-21T14:10:02;3.53;;;0.50;;
20794;SDS011;28087;-33.874;151.240;2022-11-21T14:12:50;2.10;;;0.40;;
20794;SDS011;28087;-33.874;151.240;2022-11-21T14:15:31;3.28;;;0.73;;
20794;SDS011;28087;-33.874;151.240;2022-11-21T14:18:19;2.33;;;0.60;;
20794;SDS011;28087;-33.874;151.240;2022-11-21T14:20:57;1.75;;;0.50;;
20794;SDS011;28087;-33.874;151.240;2022-11-21T14:23:35;1.42;;;0.50;;
20794;SDS011;28087;-33.874;151.240;2022-11-21T14:26:17;1.42;;;0.40;;
20794;SDS011;28087;-33.874;151.240;2022-11-21T14:28:57;2.80;;;0.68;;
20794;SDS011;28087;-33.874;151.240;2022-11-21T14:31:54;3.25;;;0.55;;
20794;SDS011;28087;-33.874;151.240;2022-11-21T14:34:29;1.60;;;0.40;;
20794;SDS011;28087;-33.874;151.240;2022-11-21T14:37:06;3.30;;;0.50;;
20794;SDS011;28087;-33.874;151.240;2022-11-21T14:39:45;1.70;;;0.50;;
20794;SDS011;28087;-33.874;151.240;2022-11-21T14:42:33;1.67;;;0.45;;
20794;SDS011;28087;-33.874;151.240;2022-11-21T14:45:14;0.90;;;0.40;;
20794;SDS011;28087;-33.874;151.240;2022-11-21T14:47:54;0.60;;;0.30;;
20794;SDS011;28087;-33.874;151.240;2022-11-21T14:50:32;1.23;;;0.40;;
20794;SDS011;28087;-33.874;151.240;2022-11-21T14:53:10;0.70;;;0.40;;
20794;SDS011;28087;-33.874;151.240;2022-11-21T14:55:48;0.55;;;0.30;;
20794;SDS011;28087;-33.874;151.240;2022-11-21T14:58:30;0.93;;;0.30;;
20794;SDS011;28087;-33.874;151.240;2022-11-21T15:01:12;3.25;;;0.30;;
20794;SDS011;28087;-33.874;151.240;2022-11-21T15:03:57;0.70;;;0.20;;
20794;SDS011;28087;-33.874;151.240;2022-11-21T15:06:39;1.50;;;0.40;;
20794;SDS011;28087;-33.874;151.240;2022-11-21T15:09:17;0.80;;;0.40;;
20794;SDS011;28087;-33.874;151.240;2022-11-21T15:12:12;2.08;;;0.40;;
20794;SDS011;28087;-33.874;151.240;2022-11-21T15:14:53;2.75;;;0.47;;
20794;SDS011;28087;-33.874;151.240;2022-11-21T15:17:33;1.85;;;0.50;;
20794;SDS011;28087;-33.874;151.240;2022-11-21T15:20:33;0.95;;;0.25;;
20794;SDS011;28087;-33.874;151.240;2022-11-21T15:23:23;2.50;;;0.50;;
20794;SDS011;28087;-33.874;151.240;2022-11-21T15:25:59;1.50;;;0.20;;
20794;SDS011;28087;-33.874;151.240;2022-11-21T15:28:35;0.25;;;0.20;;
20794;SDS011;28087;-33.874;151.240;2022-11-21T15:31:15;2.47;;;0.30;;
20794;SDS011;28087;-33.874;151.240;2022-11-21T15:33:53;0.68;;;0.30;;
20794;SDS011;28087;-33.874;151.240;2022-11-21T15:37:02;0.88;;;0.30;;
20794;SDS011;28087;-33.874;151.240;2022-11-21T15:39:45;0.80;;;0.30;;
20794;SDS011;28087;-33.874;151.240;2022-11-21T15:45:23;1.25;;;0.40;;
20794;SDS011;28087;-33.874;151.240;2022-11-21T15:48:00;3.58;;;0.30;;
20794;SDS011;28087;-33.874;151.240;2022-11-21T15:50:37;0.55;;;0.30;;
20794;SDS011;28087;-33.874;151.240;2022-11-21T15:53:17;0.77;;;0.30;;
20794;SDS011;28087;-33.874;151.240;2022-11-21T15:55:54;0.30;;;0.20;;
20794;SDS011;28087;-33.874;151.240;2022-11-21T15:58:58;0.38;;;0.20;;
20794;SDS011;28087;-33.874;151.240;2022-11-21T16:02:00;0.98;;;0.30;;
20794;SDS011;28087;-33.874;151.240;2022-11-21T16:04:37;2.03;;;0.43;;
20794;SDS011;28087;-33.874;151.240;2022-11-21T16:07:13;1.60;;;0.35;;
20794;SDS011;28087;-33.874;151.240;2022-11-21T16:09:51;0.80;;;0.20;;